Aeroporto :
LOGIN :

Iscrizione | Disclaimer

   EN    FR    IT 

 










Sommario :    VFR   VFR Marginale   IFR   IFR Intensivo   IFR Molto Intensivo
Visibilità : 
Base nubi : 
>= 8 km
>= 3000ft
5 / 8 km
1000 / 3000 ft
1500m / 5 km
500 / 1000 ft
800 / 1500m
200 / 500 ft
< 800m
< 200 ft
Simboli :   Temporali  Nebbia  Neve Forte  Precipitazioni Forti  Vento > 20 kt
SIGMETs :   Varie  Temporali  Ghiacco  Turbolenza  Onda orograficha  Ceneri Vulcaniche






- Altitudine del aeroporto : 170 ft
- Codice IATA : BGO


ENBR - Bergen , Flesland

ULTIMO METAR :
  • 090050Z 24012KT 9999 FEW010 SCT017 BKN024 06/03 Q0970 RMK WIND 1200FT 26021KT

METARs OBSOLETI :
  • 082350Z 23012G23KT 9999 FEW004 SCT035 06/04 Q0969 RMK WIND 1200FT 25024KT
  • 082320Z 23013G23KT 9999 FEW005 SCT035 06/04 Q0969 RMK WIND 1200FT 25018G29KT
  • 082250Z 24011KT 9999 FEW015TCU SCT020 SCT035 07/03 Q0970 RMK WIND 1200FT 25022KT

TAF TAF ENBR
Valido dal 09 a 00 ore il 10 a 00 ore UTC


0900/0924 24012KT 9999 -SHRA FEW015TCU BKN020
TEMPO 0900/0918 SHRAGS BKN014CB
BECMG 0903/0906 35025G40KT
BECMG 0910/0912 35018KT
BECMG 0918/0920 34008KT



MetMap, La meteo Aeronautica in un colpo d'occhio ! - Copyright ORBIFLY Dicembre 2007 - Disclaimer

ORBIFLY MET'MAP TEAM :

Programmazione e sviluppo : Alexandra Zaïnal
Concezione : Baudouin d'Aumeries
Aiuto per la programmazione : Marc-Olivier Méhu
Supporto tecnico e logistico : Manuel Goepfert
Aiuto per la traduzione : Arnaldo La Scala

Contatto : metmap@orbifly.com




FONTI E CREDITI :

   NOAA